CheckWX is a tool to help pilots better visualize weather data.  It is not intended as a substitute for an official pre-flight weather briefing.

06:00:37 UTC

KMOT TAF
Minot International Airport
Minot, North Dakota, USA
KMOT 040520Z 0406/0506 15005KT P6SM SCT250 FM042100 13016G24KT P6SM BKN090 FM050400 20005KT P6SM SCT120

Apr-4@
06:00 UTC

Apr-4 @ 06:00 UTC

Apr-4@
21:00 UTC

Apr-4 @ 21:00 UTC

TAF KMOT 040520Z 0406/0506 15005KT P6SM SCT250

Expired

Wind
  • 150° at 5 KTS
Cloud Levels
  • Scattered at 25,000' AGL

Apr-4@
21:00 UTC

Apr-4 @ 21:00 UTC

Apr-5@
04:00 UTC

Apr-5 @ 04:00 UTC

FM042100 13016G24KT P6SM BKN090

Expired

Wind
  • 130° at 16 KTS
  • {Gusting to 24 KTS
Cloud Levels
  • Broken at 9,000' AGL

Apr-5@
04:00 UTC

Apr-5 @ 04:00 UTC

Apr-5@
06:00 UTC

Apr-5 @ 06:00 UTC

FM050400 20005KT P6SM SCT120

Expired

Wind
  • 200° at 5 KTS
Cloud Levels
  • Scattered at 12,000' AGL